Radburn, NJ

8:40 AM EDT on March 27, 2017 (GMT -0400)
Fair Lawn High School | | Change Station

Elev 89 ft 40.93 °N, 74.12 °W | Updated 2 minutes ago

Rain
Rain
38.0 °F
Feels Like 38 °F
N
1.0
Wind Variable Wind from SE
Gusts 3.0 mph

Today
High -- | Low -- °F
--% Chance of Precip.
Yesterday
High -- | Low -- °F
Precip. -- in
Pressure 30.12 in
Visibility 1.0 miles
Clouds Overcast 300 ft
Windchill 38 °F
Dew Point 37 °F
Humidity 96%
Rainfall 0.23 in
Snow Depth Not available.
6:47 AM 7:16 PM
Waning Crescent, 0% visible
METAR KTEB 271151Z 00000KT 1SM R06/P6000FT -RA BR OVC003 04/03 A3012 RMK AO2 SLP198 P0003 60006 70006 T00440033 10044 20033 58021
Pressure 30.12 in
Visibility 1.0 miles
Clouds Overcast 300 ft
Windchill 38 °F
Dew Point 37 °F
Humidity 96%
Rainfall 0.23 in
Snow Depth Not available.
6:47 AM 7:16 PM
Waning Crescent, 0% visible
METAR KTEB 271151Z 00000KT 1SM R06/P6000FT -RA BR OVC003 04/03 A3012 RMK AO2 SLP198 P0003 60006 70006 T00440033 10044 20033 58021

Get Severe Weather Alerts

Thanks for signing up!

Be on the lookout for a verification email in your inbox.

You'll start receiving the daily forecast at 8 AM.

×

10-Day Weather Forecast

Almanac

Astronomy

Mar. 27, 2017 Rise Set
Actual Time
Civil Twilight
Nautical Twilight
Astronomical Twilight
Moon
Length of Visible Light
Length of Day
Tomorrow will be .
, % of the Moon is Illuminated

Today's Extremes

State Highs State Lows

Community

WunderPhotos

Upload Photos

1,962,540 photos uploaded!

WunderBlog® & News

Nearby

Air Quality

  Air Quality AQ Index Pollutant
Not available.

Snow Depth

Station Depth Elevation

Earthquake Activity

City Distance Mag. Time & Date
Minimum magnitude displayed is 2.5.

Earthquake Activity

City Distance Mag. Time & Date
Minimum magnitude displayed is 2.5.

Coastal Water Temperatures

Place Temperature

Stations

Nearby Weather Stations

Station Location Temp. Windchill Dew Point Humidity Wind Precip. Elev Updated Type
                   

Watches & Warnings

There are currently no watches in effect.